createdAt,value
2019-03-20T00:02:20.003Z,99.90
2019-03-20T00:04:50.249Z,99.90
2019-03-20T00:07:20.283Z,99.90
2019-03-20T00:09:50.693Z,99.90
2019-03-20T00:12:20.792Z,99.90
2019-03-20T00:14:50.875Z,99.90
2019-03-20T00:17:20.856Z,99.90
2019-03-20T00:19:51.315Z,99.90
2019-03-20T00:22:21.502Z,99.90
2019-03-20T00:24:51.546Z,99.90
2019-03-20T00:27:21.625Z,99.90
2019-03-20T00:29:51.892Z,99.90
2019-03-20T00:32:21.989Z,99.90
2019-03-20T00:35:00.483Z,99.90
2019-03-20T00:37:24.694Z,99.90
2019-03-20T00:39:55.330Z,99.90
2019-03-20T00:42:25.312Z,99.90
2019-03-20T00:44:55.249Z,99.90
2019-03-20T00:47:25.557Z,99.90
2019-03-20T00:49:57.900Z,99.90
2019-03-20T00:52:27.255Z,99.90
2019-03-20T00:54:57.409Z,99.90
2019-03-20T00:57:27.633Z,99.90
2019-03-20T00:59:58.031Z,99.90
2019-03-20T01:02:28.339Z,99.90
2019-03-20T01:04:58.712Z,99.90
2019-03-20T01:07:28.697Z,99.90
2019-03-20T01:09:58.769Z,99.90
2019-03-20T01:12:29.402Z,99.90
2019-03-20T01:14:59.534Z,99.90
2019-03-20T01:17:29.476Z,99.90
2019-03-20T01:19:59.943Z,99.90
2019-03-20T01:22:30.462Z,99.90
2019-03-20T01:25:00.533Z,99.90
2019-03-20T01:27:31.047Z,99.90
2019-03-20T01:30:00.921Z,99.90
2019-03-20T01:32:31.167Z,99.90
2019-03-20T01:35:01.475Z,99.90
2019-03-20T01:37:31.806Z,99.90
2019-03-20T01:40:01.928Z,99.90
2019-03-20T01:42:32.321Z,99.90
2019-03-20T01:45:02.828Z,99.90
2019-03-20T01:47:33.162Z,99.90
2019-03-20T01:50:03.317Z,99.90
2019-03-20T01:52:33.495Z,99.90
2019-03-20T01:55:03.558Z,99.90
2019-03-20T01:57:33.683Z,99.90
2019-03-20T02:00:06.056Z,99.90
2019-03-20T02:02:36.239Z,99.90
2019-03-20T02:05:07.778Z,99.90
2019-03-20T02:07:38.020Z,99.90
2019-03-20T02:10:12.749Z,99.90
2019-03-20T02:12:42.777Z,99.90
2019-03-20T02:15:13.774Z,99.90
2019-03-20T02:17:43.793Z,99.90
2019-03-20T02:20:15.735Z,99.90
2019-03-20T02:22:45.766Z,99.90
2019-03-20T02:25:16.564Z,99.90
2019-03-20T02:27:46.733Z,99.90
2019-03-20T02:30:16.960Z,99.90
2019-03-20T02:32:46.973Z,99.90
2019-03-20T02:35:17.499Z,99.90
2019-03-20T02:37:47.414Z,99.90
2019-03-20T02:40:18.045Z,99.90
2019-03-20T02:42:48.763Z,99.90
2019-03-20T02:45:18.847Z,99.90
2019-03-20T02:47:49.229Z,99.90
2019-03-20T02:50:25.045Z,99.90
2019-03-20T02:52:55.157Z,99.90
2019-03-20T02:55:25.985Z,99.90
2019-03-20T02:58:01.690Z,99.90
2019-03-20T03:00:33.041Z,99.90
2019-03-20T03:03:03.069Z,99.90
2019-03-20T03:05:33.750Z,99.90
2019-03-20T03:08:03.801Z,99.90
2019-03-20T03:10:33.779Z,99.90
2019-03-20T03:13:03.953Z,99.90
2019-03-20T03:15:33.960Z,99.90
2019-03-20T03:18:04.381Z,99.90
2019-03-20T03:20:34.351Z,99.90
2019-03-20T03:23:04.501Z,99.90
2019-03-20T03:25:34.511Z,99.90
2019-03-20T03:28:04.487Z,99.90
2019-03-20T03:30:34.528Z,99.90
2019-03-20T03:33:04.606Z,99.90
2019-03-20T03:35:34.930Z,99.90
2019-03-20T03:38:05.360Z,99.90
2019-03-20T03:40:35.918Z,99.90
2019-03-20T03:43:05.876Z,99.90
2019-03-20T03:45:36.024Z,99.90
2019-03-20T03:48:06.956Z,99.90
2019-03-20T03:50:37.268Z,99.90
2019-03-20T03:53:07.318Z,99.90
2019-03-20T03:55:37.871Z,99.90
2019-03-20T03:58:08.418Z,99.90
2019-03-20T04:00:38.374Z,99.90
2019-03-20T04:03:08.380Z,99.90
2019-03-20T04:05:38.371Z,99.90
2019-03-20T04:08:08.502Z,99.90
2019-03-20T04:10:38.779Z,99.90
2019-03-20T04:13:08.845Z,99.90
2019-03-20T04:15:39.071Z,99.90
2019-03-20T04:18:09.401Z,99.90
2019-03-20T04:20:39.571Z,99.90
2019-03-20T04:23:09.755Z,99.90
2019-03-20T04:25:40.181Z,99.90
2019-03-20T04:28:10.700Z,99.90
2019-03-20T04:30:41.334Z,99.90
2019-03-20T04:33:12.223Z,99.90
2019-03-20T04:35:42.209Z,99.90
2019-03-20T04:38:12.312Z,99.90
2019-03-20T04:40:42.875Z,99.90
2019-03-20T04:43:13.589Z,99.90
2019-03-20T04:45:44.175Z,99.90
2019-03-20T04:48:14.212Z,99.90
2019-03-20T04:50:44.738Z,99.90
2019-03-20T04:53:14.945Z,99.90
2019-03-20T04:55:45.133Z,99.90
2019-03-20T04:58:15.471Z,99.90
2019-03-20T05:00:47.027Z,99.90
2019-03-20T05:03:17.006Z,99.90
2019-03-20T05:05:47.177Z,99.90
2019-03-20T05:08:17.646Z,99.90
2019-03-20T05:10:47.915Z,99.90
2019-03-20T05:13:18.636Z,99.90
2019-03-20T05:15:48.674Z,99.90
2019-03-20T05:18:19.064Z,99.90
2019-03-20T05:20:49.168Z,99.90
2019-03-20T05:23:21.042Z,99.90
2019-03-20T05:25:51.361Z,99.90
2019-03-20T05:28:21.613Z,99.90
2019-03-20T05:30:51.716Z,99.90
2019-03-20T05:33:23.099Z,99.90
2019-03-20T05:35:53.464Z,99.90
2019-03-20T05:38:23.846Z,99.90
2019-03-20T05:40:54.166Z,99.90
2019-03-20T05:43:24.507Z,99.90
2019-03-20T05:45:55.022Z,99.90
2019-03-20T05:48:25.082Z,99.90
2019-03-20T05:50:55.350Z,99.90
2019-03-20T05:53:25.490Z,99.90
2019-03-20T05:55:55.967Z,99.90
2019-03-20T05:58:25.982Z,99.90
2019-03-20T06:00:56.012Z,99.90
2019-03-20T06:03:26.181Z,99.90
2019-03-20T06:05:56.140Z,99.90
2019-03-20T06:08:26.646Z,99.90
2019-03-20T06:10:56.640Z,99.90
2019-03-20T06:13:27.009Z,99.90
2019-03-20T06:15:57.115Z,99.90
2019-03-20T06:18:27.566Z,99.90
2019-03-20T06:20:58.030Z,99.90
2019-03-20T06:23:28.559Z,99.90
2019-03-20T06:25:58.618Z,99.90
2019-03-20T06:28:30.006Z,99.90
2019-03-20T06:31:00.160Z,99.90
2019-03-20T06:33:30.761Z,99.90
2019-03-20T06:36:01.046Z,95.10
2019-03-20T06:38:31.112Z,80.20
2019-03-20T06:41:01.238Z,72.30
2019-03-20T06:43:31.249Z,62.20
2019-03-20T06:46:01.531Z,59.00
2019-03-20T06:48:31.567Z,58.10
2019-03-20T06:51:03.832Z,59.50
2019-03-20T06:53:34.044Z,57.40
2019-03-20T06:56:04.188Z,53.30
2019-03-20T06:58:34.237Z,50.80
2019-03-20T07:01:18.498Z,48.10
2019-03-20T07:04:08.543Z,47.20
2019-03-20T07:07:18.286Z,47.80
2019-03-20T07:10:19.531Z,46.70
2019-03-20T07:12:49.549Z,46.90
2019-03-20T07:15:19.888Z,47.90
2019-03-20T07:17:50.595Z,48.30
2019-03-20T07:20:21.622Z,48.90
2019-03-20T07:22:51.794Z,45.80
2019-03-20T07:25:21.931Z,45.50
2019-03-20T07:27:52.671Z,44.50
2019-03-20T07:30:23.236Z,43.80
2019-03-20T07:32:53.134Z,45.00
2019-03-20T07:35:23.233Z,43.20
2019-03-20T07:37:56.184Z,42.10
2019-03-20T07:40:25.624Z,41.80
2019-03-20T07:42:55.628Z,41.90
2019-03-20T07:45:26.101Z,39.10
2019-03-20T07:47:56.090Z,37.60
2019-03-20T07:50:26.609Z,35.90
2019-03-20T07:52:57.186Z,36.20
2019-03-20T07:55:27.298Z,37.20
2019-03-20T07:57:57.503Z,37.70
2019-03-20T08:00:27.598Z,34.80
2019-03-20T08:02:57.618Z,34.90
2019-03-20T08:05:29.450Z,34.80
2019-03-20T08:08:07.372Z,33.70
2019-03-20T08:10:31.712Z,33.50
2019-03-20T08:13:01.826Z,30.90
2019-03-20T08:15:34.599Z,31.60
2019-03-20T08:18:04.897Z,32.10
2019-03-20T08:20:35.270Z,31.00
2019-03-20T08:23:07.023Z,30.30
2019-03-20T08:25:37.496Z,29.80
2019-03-20T08:28:07.467Z,31.00
2019-03-20T08:30:38.054Z,29.80
2019-03-20T08:33:08.022Z,28.90
2019-03-20T08:35:38.469Z,29.70
2019-03-20T08:38:17.616Z,28.10
2019-03-20T08:40:40.449Z,28.30
2019-03-20T08:43:10.882Z,28.50
2019-03-20T08:45:41.499Z,29.90
2019-03-20T08:48:15.266Z,30.00
2019-03-20T08:50:45.389Z,29.20
2019-03-20T08:53:15.587Z,28.60
2019-03-20T08:55:47.061Z,28.90
2019-03-20T08:58:17.892Z,29.30
2019-03-20T09:00:48.295Z,29.50
2019-03-20T09:03:18.433Z,29.10
2019-03-20T09:05:48.653Z,29.60
2019-03-20T09:08:28.978Z,29.70
2019-03-20T09:10:51.377Z,31.30
2019-03-20T09:13:21.905Z,30.40
2019-03-20T09:15:52.308Z,31.80
2019-03-20T09:18:22.293Z,30.40
2019-03-20T09:20:52.316Z,30.00
2019-03-20T09:23:22.579Z,29.60
2019-03-20T09:25:53.441Z,28.70
2019-03-20T09:28:23.584Z,29.00
2019-03-20T09:30:53.710Z,29.40
2019-03-20T09:33:23.988Z,28.40
2019-03-20T09:35:53.961Z,28.70
2019-03-20T09:38:24.511Z,28.50
2019-03-20T09:40:54.607Z,28.80
2019-03-20T09:43:25.431Z,30.50
2019-03-20T09:45:57.073Z,30.00
2019-03-20T09:48:27.412Z,30.10
2019-03-20T09:50:57.745Z,31.00
2019-03-20T09:53:29.284Z,28.90
2019-03-20T09:55:59.940Z,28.40
2019-03-20T09:58:30.190Z,29.10
2019-03-20T10:01:00.460Z,28.70
2019-03-20T10:03:30.537Z,29.30
2019-03-20T10:06:00.511Z,29.00
2019-03-20T10:08:30.962Z,28.40
2019-03-20T10:11:01.113Z,27.10
2019-03-20T10:13:31.101Z,28.00
2019-03-20T10:16:01.561Z,30.00
2019-03-20T10:18:31.681Z,27.80
2019-03-20T10:21:01.659Z,27.70
2019-03-20T10:23:31.712Z,27.80
2019-03-20T10:26:01.650Z,26.90
2019-03-20T10:28:31.709Z,27.20
2019-03-20T10:31:01.685Z,27.20
2019-03-20T10:33:32.055Z,27.10
2019-03-20T10:36:02.295Z,27.10
2019-03-20T10:38:33.039Z,27.70
2019-03-20T10:41:03.087Z,28.20
2019-03-20T10:43:33.651Z,27.50
2019-03-20T10:46:03.854Z,28.00
2019-03-20T10:48:34.439Z,27.60
2019-03-20T10:51:04.552Z,29.30
2019-03-20T10:53:34.613Z,30.00
2019-03-20T10:56:04.799Z,30.00
2019-03-20T10:58:35.372Z,30.90
2019-03-20T11:01:05.527Z,28.80
2019-03-20T11:03:35.660Z,28.60
2019-03-20T11:06:05.862Z,28.50
2019-03-20T11:08:35.781Z,30.00
2019-03-20T11:11:06.196Z,29.60
2019-03-20T11:13:36.355Z,30.00
2019-03-20T11:16:06.872Z,30.20
2019-03-20T11:18:37.859Z,29.20
2019-03-20T11:21:09.289Z,30.70
2019-03-20T11:23:39.270Z,29.80
2019-03-20T11:26:09.620Z,28.70
2019-03-20T11:28:40.116Z,28.60
2019-03-20T11:31:10.387Z,29.40
2019-03-20T11:33:40.363Z,29.50
2019-03-20T11:36:10.661Z,30.10
2019-03-20T11:38:40.952Z,30.70
2019-03-20T11:41:10.944Z,31.40
2019-03-20T11:43:41.100Z,31.40
2019-03-20T11:46:11.558Z,30.30
2019-03-20T11:48:41.706Z,30.80
2019-03-20T11:51:11.689Z,31.70
2019-03-20T11:53:41.855Z,31.80
2019-03-20T11:56:12.147Z,33.10
2019-03-20T11:58:42.138Z,34.60
2019-03-20T12:01:12.260Z,34.50
2019-03-20T12:03:42.343Z,37.20
2019-03-20T12:06:12.933Z,35.10
2019-03-20T12:08:44.368Z,34.40
2019-03-20T12:11:15.940Z,35.30
2019-03-20T12:13:46.577Z,36.00
2019-03-20T12:16:17.055Z,39.10
2019-03-20T12:18:47.156Z,40.30
2019-03-20T12:21:17.917Z,39.70
2019-03-20T12:23:48.035Z,40.30
2019-03-20T12:26:18.011Z,39.60
2019-03-20T12:28:51.194Z,39.80
2019-03-20T12:31:21.446Z,39.70
2019-03-20T12:33:51.588Z,40.80
2019-03-20T12:36:21.911Z,41.00
2019-03-20T12:38:52.247Z,40.10
2019-03-20T12:41:23.063Z,40.80
2019-03-20T12:43:53.147Z,41.50
2019-03-20T12:46:23.357Z,40.60
2019-03-20T12:48:53.389Z,42.40
2019-03-20T12:51:23.882Z,39.90
2019-03-20T12:53:54.244Z,39.90
2019-03-20T12:56:24.903Z,40.30
2019-03-20T12:58:55.662Z,40.60
2019-03-20T13:01:26.706Z,42.20
2019-03-20T13:03:57.022Z,42.60
2019-03-20T13:06:27.163Z,43.20
2019-03-20T13:08:57.119Z,44.30
2019-03-20T13:11:27.297Z,44.00
2019-03-20T13:13:57.407Z,43.40
2019-03-20T13:16:27.447Z,42.20
2019-03-20T13:18:57.864Z,41.90
2019-03-20T13:21:28.146Z,40.40
2019-03-20T13:23:58.404Z,40.70
2019-03-20T13:26:29.102Z,40.70
2019-03-20T13:28:59.031Z,40.30
2019-03-20T13:31:29.178Z,38.40
2019-03-20T13:33:59.294Z,41.10
2019-03-20T13:36:29.901Z,41.50
2019-03-20T13:38:59.843Z,40.60
2019-03-20T13:41:30.085Z,40.20
2019-03-20T13:44:00.178Z,39.00
2019-03-20T13:46:30.622Z,41.70
2019-03-20T13:49:00.891Z,41.80
2019-03-20T13:51:30.995Z,42.10
2019-03-20T13:54:01.812Z,43.90
2019-03-20T13:56:32.004Z,43.70
2019-03-20T13:59:02.842Z,43.60
2019-03-20T14:01:33.323Z,43.30
2019-03-20T14:04:03.655Z,43.50
2019-03-20T14:06:33.926Z,42.40
2019-03-20T14:09:07.307Z,42.30
2019-03-20T14:11:37.506Z,41.70
2019-03-20T14:14:07.850Z,41.60
2019-03-20T14:16:38.478Z,42.10
2019-03-20T14:19:10.560Z,43.00
2019-03-20T14:21:40.593Z,43.50
2019-03-20T14:24:11.282Z,43.70
2019-03-20T14:26:41.472Z,42.20
2019-03-20T14:29:11.674Z,42.40
2019-03-20T14:31:41.783Z,44.30
2019-03-20T14:34:11.841Z,46.90
2019-03-20T14:36:42.577Z,46.20
2019-03-20T14:39:12.606Z,46.50
2019-03-20T14:41:42.648Z,46.30
2019-03-20T14:44:12.923Z,46.80
2019-03-20T14:46:43.152Z,45.90
2019-03-20T14:49:13.298Z,46.10
2019-03-20T14:51:43.668Z,47.20
2019-03-20T14:54:13.696Z,46.90
2019-03-20T14:56:43.706Z,46.80
2019-03-20T14:59:13.784Z,44.50
2019-03-20T15:01:44.031Z,45.70
2019-03-20T15:04:14.038Z,47.20
2019-03-20T15:06:44.242Z,46.90
2019-03-20T15:09:14.239Z,47.40
2019-03-20T15:11:45.637Z,48.50
2019-03-20T15:14:15.812Z,48.60
2019-03-20T15:16:46.084Z,50.10
2019-03-20T15:19:16.300Z,49.60
2019-03-20T15:21:46.426Z,49.60
2019-03-20T15:24:16.662Z,51.00
2019-03-20T15:26:46.678Z,50.80
2019-03-20T15:29:17.042Z,50.40
2019-03-20T15:31:47.227Z,50.20
2019-03-20T15:34:17.696Z,51.90
2019-03-20T15:36:47.844Z,50.30
2019-03-20T15:39:17.980Z,49.20
2019-03-20T15:41:47.948Z,50.60
2019-03-20T15:44:17.799Z,51.90
2019-03-20T15:46:48.281Z,52.90
2019-03-20T15:49:18.248Z,53.10
2019-03-20T15:51:48.463Z,53.20
2019-03-20T15:54:18.608Z,52.50
2019-03-20T15:56:48.916Z,53.40
2019-03-20T15:59:19.250Z,52.80
2019-03-20T16:01:49.734Z,53.00
2019-03-20T16:04:19.887Z,54.50
2019-03-20T16:06:49.886Z,54.10
2019-03-20T16:09:19.907Z,54.40
2019-03-20T16:11:49.913Z,54.10
2019-03-20T16:14:20.048Z,53.80
2019-03-20T16:16:51.120Z,54.00
2019-03-20T16:19:21.499Z,55.10
2019-03-20T16:21:52.241Z,55.40
2019-03-20T16:24:22.539Z,55.60
2019-03-20T16:26:52.539Z,56.10
2019-03-20T16:29:22.595Z,55.70
2019-03-20T16:31:52.866Z,56.90
2019-03-20T16:34:23.014Z,56.70
2019-03-20T16:36:53.603Z,57.20
2019-03-20T16:39:23.547Z,57.10
2019-03-20T16:41:53.725Z,57.60
2019-03-20T16:44:24.097Z,58.30
2019-03-20T16:46:54.472Z,58.80
2019-03-20T16:49:24.780Z,59.20
2019-03-20T16:51:55.039Z,59.70
2019-03-20T16:54:25.390Z,61.40
2019-03-20T16:56:55.399Z,61.90
2019-03-20T16:59:25.365Z,62.50
2019-03-20T17:01:55.553Z,63.10
2019-03-20T17:04:25.423Z,63.70
2019-03-20T17:06:55.673Z,64.00
2019-03-20T17:09:25.889Z,64.40
2019-03-20T17:11:56.058Z,64.90
2019-03-20T17:14:26.148Z,65.50
2019-03-20T17:16:56.495Z,66.50
2019-03-20T17:19:26.914Z,67.10
2019-03-20T17:21:56.945Z,67.70
2019-03-20T17:24:27.052Z,68.60
2019-03-20T17:26:57.126Z,69.20
2019-03-20T17:29:27.684Z,70.40
2019-03-20T17:31:57.995Z,71.30
2019-03-20T17:34:28.118Z,72.60
2019-03-20T17:36:58.289Z,74.10
2019-03-20T17:39:28.489Z,76.10
2019-03-20T17:41:58.575Z,78.00
2019-03-20T17:44:28.674Z,80.00
2019-03-20T17:46:59.256Z,82.50
2019-03-20T17:49:29.277Z,85.50
2019-03-20T17:51:59.412Z,88.30
2019-03-20T17:54:30.432Z,90.80
2019-03-20T17:57:00.484Z,92.40
2019-03-20T17:59:30.914Z,94.00
2019-03-20T18:02:00.971Z,95.90
2019-03-20T18:04:31.274Z,98.40
2019-03-20T18:07:02.084Z,99.90
2019-03-20T18:09:32.095Z,99.90
2019-03-20T18:12:02.159Z,99.90
2019-03-20T18:14:33.000Z,99.90
2019-03-20T18:17:03.015Z,99.90
2019-03-20T18:19:33.162Z,99.90
2019-03-20T18:22:03.213Z,99.90
2019-03-20T18:24:33.227Z,99.90
2019-03-20T18:27:03.123Z,99.90
2019-03-20T18:29:33.209Z,99.90
2019-03-20T18:32:03.129Z,99.90
2019-03-20T18:34:33.502Z,99.90
2019-03-20T18:37:03.458Z,99.90
2019-03-20T18:39:33.503Z,99.90
2019-03-20T18:42:04.039Z,99.90
2019-03-20T18:44:33.998Z,99.90
2019-03-20T18:47:04.063Z,99.90
2019-03-20T18:49:34.170Z,99.90
2019-03-20T18:52:04.478Z,99.90
2019-03-20T18:54:34.703Z,99.90
2019-03-20T18:57:05.504Z,99.90
2019-03-20T18:59:37.002Z,99.90
2019-03-20T19:02:07.290Z,99.90
2019-03-20T19:04:37.419Z,99.90
2019-03-20T19:07:07.928Z,99.90
2019-03-20T19:09:38.139Z,99.90
2019-03-20T19:12:09.234Z,99.90
2019-03-20T19:14:39.665Z,99.90
2019-03-20T19:17:09.729Z,99.90
2019-03-20T19:19:40.111Z,99.90
2019-03-20T19:22:10.280Z,99.90
2019-03-20T19:24:40.440Z,99.90
2019-03-20T19:27:10.562Z,99.90
2019-03-20T19:29:40.686Z,99.90
2019-03-20T19:32:10.738Z,99.90
2019-03-20T19:34:41.063Z,99.90
2019-03-20T19:37:11.418Z,99.90
2019-03-20T19:39:41.643Z,99.90
2019-03-20T19:42:20.048Z,99.90
2019-03-20T19:44:44.479Z,99.90
2019-03-20T19:47:15.313Z,99.90
2019-03-20T19:49:45.933Z,99.90
2019-03-20T19:52:16.478Z,99.90
2019-03-20T19:54:46.601Z,99.90
2019-03-20T19:57:16.567Z,99.90
2019-03-20T19:59:46.843Z,99.90
2019-03-20T20:02:17.651Z,99.90
2019-03-20T20:04:47.966Z,99.90
2019-03-20T20:07:18.084Z,99.90
2019-03-20T20:09:48.424Z,99.90
2019-03-20T20:12:19.231Z,99.90
2019-03-20T20:14:49.689Z,99.90
2019-03-20T20:17:22.748Z,99.90
2019-03-20T20:19:53.489Z,99.90
2019-03-20T20:22:25.460Z,99.90
2019-03-20T20:24:55.446Z,99.90
2019-03-20T20:27:25.465Z,99.90
2019-03-20T20:29:55.586Z,99.90
2019-03-20T20:32:25.988Z,99.90
2019-03-20T20:34:56.700Z,99.90
2019-03-20T20:37:26.730Z,99.90
2019-03-20T20:39:57.155Z,99.90
2019-03-20T20:42:27.196Z,99.90
2019-03-20T20:44:57.300Z,99.90
2019-03-20T20:47:27.397Z,99.90
2019-03-20T20:49:57.456Z,99.90
2019-03-20T20:52:27.733Z,99.90
2019-03-20T20:54:58.030Z,99.90
2019-03-20T20:57:28.143Z,99.90
2019-03-20T20:59:58.262Z,99.90
2019-03-20T21:02:29.046Z,99.90
2019-03-20T21:04:59.262Z,99.90
2019-03-20T21:07:29.654Z,99.90
2019-03-20T21:09:59.889Z,99.90
2019-03-20T21:12:32.427Z,99.90
2019-03-20T21:15:02.727Z,99.90
2019-03-20T21:17:44.747Z,99.90
2019-03-20T21:20:15.505Z,99.90
2019-03-20T21:23:21.822Z,99.90
2019-03-20T21:25:52.440Z,99.90
2019-03-20T21:29:07.062Z,99.90
2019-03-20T21:31:44.261Z,99.90
2019-03-20T21:34:34.245Z,99.90
2019-03-20T21:37:37.645Z,99.90
2019-03-20T21:40:10.107Z,99.90
2019-03-20T21:43:17.558Z,99.90
2019-03-20T21:46:20.808Z,99.90
2019-03-20T21:48:52.177Z,99.90
2019-03-20T21:51:23.089Z,99.90
2019-03-20T21:54:19.218Z,99.90
2019-03-20T21:57:06.290Z,99.90
2019-03-20T21:59:59.770Z,99.90
2019-03-20T22:02:41.776Z,99.90
2019-03-20T22:05:33.199Z,99.90
2019-03-20T22:08:04.120Z,99.90
2019-03-20T22:11:14.370Z,99.90
2019-03-20T22:14:09.889Z,99.90
2019-03-20T22:17:36.199Z,99.90
2019-03-20T22:20:34.999Z,99.90
2019-03-20T22:23:41.475Z,99.90
2019-03-20T22:26:45.249Z,99.90
2019-03-20T22:29:26.351Z,99.90
2019-03-20T22:32:18.906Z,99.90
2019-03-20T22:35:21.007Z,99.90
2019-03-20T22:37:51.590Z,99.90
2019-03-20T22:41:10.978Z,99.90
2019-03-20T22:44:03.361Z,99.90
2019-03-20T22:47:09.374Z,99.90
2019-03-20T22:50:03.188Z,99.90
2019-03-20T22:53:05.067Z,99.90
2019-03-20T22:56:07.084Z,99.90
2019-03-20T22:58:47.527Z,99.90
2019-03-20T23:01:54.955Z,99.90
2019-03-20T23:04:30.211Z,99.90
2019-03-20T23:07:01.242Z,99.90
2019-03-20T23:09:31.804Z,99.90
2019-03-20T23:12:05.271Z,99.90
2019-03-20T23:14:35.914Z,99.90
2019-03-20T23:17:06.745Z,99.90
2019-03-20T23:19:38.187Z,99.90
2019-03-20T23:22:09.576Z,99.90
2019-03-20T23:24:41.003Z,99.90
2019-03-20T23:27:15.302Z,99.90
2019-03-20T23:29:46.092Z,99.90
2019-03-20T23:32:16.663Z,99.90
2019-03-20T23:34:47.315Z,99.90
2019-03-20T23:37:17.914Z,99.90
2019-03-20T23:39:48.444Z,99.90
2019-03-20T23:42:19.116Z,99.90
2019-03-20T23:44:49.817Z,99.90
2019-03-20T23:47:26.666Z,99.90
2019-03-20T23:49:57.398Z,99.90
2019-03-20T23:52:28.089Z,99.90
2019-03-20T23:54:59.373Z,99.90
2019-03-20T23:57:29.985Z,99.90
